createdAt,value
2018-06-15T00:00:58.597Z,13.00
2018-06-15T00:04:02.890Z,12.90
2018-06-15T00:07:07.219Z,12.90
2018-06-15T00:10:11.501Z,12.90
2018-06-15T00:13:15.776Z,12.80
2018-06-15T00:16:20.087Z,12.80
2018-06-15T00:19:24.419Z,12.80
2018-06-15T00:22:28.692Z,12.80
2018-06-15T00:25:33.021Z,12.70
2018-06-15T00:28:37.329Z,12.70
2018-06-15T00:31:44.127Z,12.60
2018-06-15T00:34:48.485Z,12.60
2018-06-15T00:37:52.873Z,12.60
2018-06-15T00:40:57.142Z,12.50
2018-06-15T00:44:01.446Z,12.50
2018-06-15T00:47:06.316Z,12.50
2018-06-15T00:50:10.605Z,12.40
2018-06-15T00:53:14.901Z,12.40
2018-06-15T00:56:19.159Z,12.40
2018-06-15T00:59:25.796Z,12.30
2018-06-15T01:02:30.189Z,12.40
2018-06-15T01:05:34.530Z,12.30
2018-06-15T01:08:38.818Z,12.30
2018-06-15T01:14:47.196Z,12.20
2018-06-15T01:17:51.470Z,12.20
2018-06-15T01:20:56.025Z,12.10
2018-06-15T01:24:00.692Z,12.10
2018-06-15T01:27:05.643Z,12.00
2018-06-15T01:30:10.375Z,12.00
2018-06-15T01:33:14.801Z,12.00
2018-06-15T01:36:19.277Z,11.90
2018-06-15T01:39:23.658Z,11.90
2018-06-15T01:42:28.021Z,11.80
2018-06-15T01:45:32.602Z,11.80
2018-06-15T01:48:37.012Z,11.90
2018-06-15T01:54:45.355Z,11.80
2018-06-15T01:57:49.933Z,11.80
2018-06-15T02:00:54.229Z,11.70
2018-06-15T02:03:58.577Z,11.60
2018-06-15T02:07:02.841Z,11.60
2018-06-15T02:10:07.187Z,11.50
2018-06-15T02:13:11.441Z,11.40
2018-06-15T02:16:16.489Z,11.40
2018-06-15T02:19:20.828Z,11.40
2018-06-15T02:22:25.156Z,11.40
2018-06-15T02:25:29.744Z,11.30
2018-06-15T02:28:34.003Z,11.30
2018-06-15T02:31:38.325Z,11.30
2018-06-15T02:37:46.644Z,11.20
2018-06-15T02:40:50.982Z,11.10
2018-06-15T02:43:55.267Z,11.10
2018-06-15T02:46:59.540Z,11.00
2018-06-15T02:50:04.004Z,11.00
2018-06-15T02:53:08.261Z,11.00
2018-06-15T02:56:12.612Z,10.90
2018-06-15T02:59:16.904Z,10.90
2018-06-15T03:02:21.230Z,10.90
2018-06-15T03:05:25.551Z,10.90
2018-06-15T03:11:33.993Z,10.90
2018-06-15T03:14:38.310Z,10.90
2018-06-15T03:17:42.589Z,10.90
2018-06-15T03:20:46.845Z,11.00
2018-06-15T03:23:51.201Z,11.10
2018-06-15T03:26:55.499Z,11.40
2018-06-15T03:29:59.816Z,11.70
2018-06-15T03:33:04.141Z,11.90
2018-06-15T03:36:08.471Z,12.10
2018-06-15T03:39:13.385Z,12.30
2018-06-15T03:42:18.663Z,12.60
2018-06-15T03:45:25.210Z,12.80
2018-06-15T03:48:29.536Z,13.10
2018-06-15T03:51:35.344Z,13.30
2018-06-15T03:54:39.603Z,13.50
2018-06-15T03:57:43.932Z,13.60
2018-06-15T04:00:48.344Z,13.70
2018-06-15T04:03:52.768Z,13.90
2018-06-15T04:10:05.332Z,14.10
2018-06-15T04:13:09.675Z,14.10
2018-06-15T04:16:14.049Z,14.10
2018-06-15T04:19:18.368Z,13.90
2018-06-15T04:22:22.714Z,13.50
2018-06-15T04:25:27.079Z,13.20
2018-06-15T04:28:31.434Z,12.90
2018-06-15T04:31:35.752Z,12.70
2018-06-15T04:34:40.174Z,12.60
2018-06-15T04:37:44.648Z,12.50
2018-06-15T04:40:48.928Z,12.50
2018-06-15T04:43:53.217Z,12.40
2018-06-15T04:46:57.584Z,12.30
2018-06-15T04:50:01.887Z,12.30
2018-06-15T04:53:06.439Z,12.30
2018-06-15T04:56:10.791Z,12.40
2018-06-15T04:59:15.147Z,12.40
2018-06-15T05:02:19.541Z,12.50
2018-06-15T05:05:23.996Z,12.50
2018-06-15T05:08:28.320Z,12.60
2018-06-15T05:11:32.701Z,12.60
2018-06-15T05:14:37.140Z,12.70
2018-06-15T05:17:41.492Z,12.80
2018-06-15T05:20:45.844Z,13.00
2018-06-15T05:23:50.095Z,13.10
2018-06-15T05:26:54.423Z,13.10
2018-06-15T05:29:58.692Z,13.20
2018-06-15T05:33:03.022Z,13.30
2018-06-15T05:36:07.318Z,13.40
2018-06-15T05:39:12.327Z,13.50
2018-06-15T05:42:16.667Z,13.50
2018-06-15T05:45:21.018Z,13.60
2018-06-15T05:48:25.315Z,13.70
2018-06-15T05:51:29.665Z,13.90
2018-06-15T05:54:33.945Z,13.90
2018-06-15T05:57:38.405Z,14.00
2018-06-15T06:00:42.754Z,14.10
2018-06-15T06:03:47.076Z,14.20
2018-06-15T06:06:51.324Z,14.30
2018-06-15T06:09:55.669Z,14.30
2018-06-15T06:16:04.018Z,14.50
2018-06-15T06:19:08.308Z,14.60
2018-06-15T06:22:12.636Z,14.80
2018-06-15T06:25:17.021Z,14.90
2018-06-15T06:28:21.231Z,15.00
2018-06-15T06:31:25.585Z,15.20
2018-06-15T06:34:29.941Z,15.30
2018-06-15T06:37:34.242Z,15.40
2018-06-15T06:40:38.562Z,15.50
2018-06-15T06:43:42.909Z,15.60
2018-06-15T06:46:47.214Z,15.70
2018-06-15T06:49:51.513Z,15.80
2018-06-15T06:52:55.861Z,15.90
2018-06-15T06:56:00.258Z,15.90
2018-06-15T06:59:04.583Z,16.00
2018-06-15T07:02:08.873Z,16.00
2018-06-15T07:05:13.242Z,16.10
2018-06-15T07:08:17.581Z,16.20
2018-06-15T07:11:21.868Z,16.30
2018-06-15T07:14:26.181Z,16.40
2018-06-15T07:17:30.479Z,16.50
2018-06-15T07:20:34.729Z,16.60
2018-06-15T07:23:39.092Z,16.70
2018-06-15T07:26:43.379Z,16.80
2018-06-15T07:29:47.705Z,16.90
2018-06-15T07:32:52.020Z,16.90
2018-06-15T07:35:56.385Z,17.00
2018-06-15T07:39:00.752Z,17.00
2018-06-15T07:42:07.693Z,17.10
2018-06-15T07:45:11.965Z,17.20
2018-06-15T07:48:16.263Z,17.20
2018-06-15T07:51:20.631Z,17.30
2018-06-15T07:54:24.854Z,17.40
2018-06-15T07:57:29.128Z,17.50
2018-06-15T08:00:33.484Z,17.50
2018-06-15T08:03:37.753Z,17.70
2018-06-15T08:06:42.449Z,17.80
2018-06-15T08:09:46.749Z,17.90
2018-06-15T08:12:50.992Z,17.80
2018-06-15T08:15:55.399Z,17.90
2018-06-15T08:18:59.683Z,18.20
2018-06-15T08:22:03.998Z,18.30
2018-06-15T08:25:08.265Z,18.20
2018-06-15T08:28:12.528Z,18.40
2018-06-15T08:31:16.992Z,18.30
2018-06-15T08:34:21.356Z,18.20
2018-06-15T08:37:25.684Z,18.20
2018-06-15T08:40:29.969Z,18.30
2018-06-15T08:43:34.239Z,18.20
2018-06-15T08:46:38.927Z,18.30
2018-06-15T08:49:43.219Z,18.40
2018-06-15T08:52:47.663Z,18.40
2018-06-15T08:55:52.071Z,18.50
2018-06-15T08:58:56.475Z,18.30
2018-06-15T09:02:00.900Z,18.50
2018-06-15T09:05:05.190Z,18.90
2018-06-15T09:08:09.497Z,19.10
2018-06-15T09:11:13.821Z,19.20
2018-06-15T09:14:18.128Z,18.90
2018-06-15T09:17:22.452Z,18.60
2018-06-15T09:20:26.772Z,18.30
2018-06-15T09:23:31.093Z,18.30
2018-06-15T09:26:35.417Z,18.60
2018-06-15T09:29:39.699Z,19.00
2018-06-15T09:32:44.129Z,19.00
2018-06-15T09:35:49.364Z,18.90
2018-06-15T09:38:53.749Z,18.80
2018-06-15T09:41:58.065Z,18.60
2018-06-15T09:45:02.354Z,18.50
2018-06-15T09:48:07.238Z,18.50
2018-06-15T09:51:12.354Z,18.80
2018-06-15T09:54:16.644Z,19.20
2018-06-15T09:57:20.977Z,19.60
2018-06-15T10:00:30.621Z,19.80
2018-06-15T10:03:34.887Z,19.70
2018-06-15T10:06:39.242Z,19.50
2018-06-15T10:09:43.566Z,19.40
2018-06-15T10:12:47.876Z,19.30
2018-06-15T10:15:52.385Z,19.20
2018-06-15T10:18:57.956Z,19.20
2018-06-15T10:22:02.303Z,19.20
2018-06-15T10:25:06.598Z,22.40
2018-06-15T10:28:10.948Z,19.40
2018-06-15T10:31:15.313Z,19.70
2018-06-15T10:34:19.648Z,20.10
2018-06-15T10:37:24.011Z,20.10
2018-06-15T10:40:28.369Z,20.00
2018-06-15T10:43:32.713Z,20.10
2018-06-15T10:46:37.017Z,20.30
2018-06-15T10:49:41.309Z,20.20
2018-06-15T10:52:45.579Z,20.00
2018-06-15T10:55:49.924Z,20.10
2018-06-15T10:58:54.206Z,20.20
2018-06-15T11:01:58.524Z,20.40
2018-06-15T11:05:02.854Z,20.30
2018-06-15T11:08:07.173Z,20.10
2018-06-15T11:11:11.519Z,20.00
2018-06-15T11:14:15.787Z,20.30
2018-06-15T11:17:20.121Z,20.60
2018-06-15T11:20:24.449Z,20.80
2018-06-15T11:23:28.765Z,20.70
2018-06-15T11:26:33.117Z,20.60
2018-06-15T11:29:37.508Z,20.30
2018-06-15T11:32:41.820Z,20.10
2018-06-15T11:35:46.165Z,19.80
2018-06-15T11:38:50.442Z,19.70
2018-06-15T11:41:54.904Z,19.70
2018-06-15T11:44:59.175Z,20.10
2018-06-15T11:48:03.544Z,20.60
2018-06-15T11:51:08.036Z,21.00
2018-06-15T11:54:12.390Z,21.10
2018-06-15T11:57:16.696Z,21.00
2018-06-15T12:00:21.043Z,20.80
2018-06-15T12:03:25.324Z,20.80
2018-06-15T12:06:29.661Z,20.80
2018-06-15T12:09:33.924Z,21.00
2018-06-15T12:12:38.321Z,21.10
2018-06-15T12:15:42.601Z,21.00
2018-06-15T12:18:46.936Z,20.90
2018-06-15T12:21:51.512Z,21.00
2018-06-15T12:24:56.204Z,21.00
2018-06-15T12:28:00.511Z,21.00
2018-06-15T12:31:04.820Z,20.90
2018-06-15T12:34:11.945Z,20.60
2018-06-15T12:37:16.247Z,20.30
2018-06-15T12:40:20.515Z,20.20
2018-06-15T12:43:24.856Z,20.10
2018-06-15T12:46:29.213Z,20.00
2018-06-15T12:49:33.646Z,20.10
2018-06-15T12:52:38.091Z,20.10
2018-06-15T12:55:42.454Z,19.90
2018-06-15T12:58:46.769Z,20.00
2018-06-15T13:01:51.095Z,19.90
2018-06-15T13:04:55.384Z,19.90
2018-06-15T13:07:59.743Z,19.80
2018-06-15T13:11:04.311Z,19.80
2018-06-15T13:14:08.575Z,19.80
2018-06-15T13:20:17.013Z,20.00
2018-06-15T13:23:21.284Z,20.30
2018-06-15T13:26:25.673Z,20.50
2018-06-15T13:29:29.965Z,20.70
2018-06-15T13:32:34.279Z,20.70
2018-06-15T13:35:38.772Z,20.70
2018-06-15T13:38:44.679Z,20.80
2018-06-15T13:41:49.464Z,20.90
2018-06-15T13:44:53.732Z,20.90
2018-06-15T13:47:58.884Z,21.10
2018-06-15T13:51:03.179Z,21.10
2018-06-15T13:54:07.522Z,21.20
2018-06-15T13:57:11.868Z,21.00
2018-06-15T14:00:16.112Z,21.00
2018-06-15T14:03:20.395Z,20.90
2018-06-15T14:06:24.717Z,21.00
2018-06-15T14:09:28.948Z,21.10
2018-06-15T14:12:33.302Z,21.10
2018-06-15T14:18:41.625Z,21.40
2018-06-15T14:21:45.961Z,21.30
2018-06-15T14:27:54.387Z,21.50
2018-06-15T14:30:58.692Z,21.40
2018-06-15T14:34:03.024Z,21.40
2018-06-15T14:37:07.351Z,21.40
2018-06-15T14:40:11.612Z,21.20
2018-06-15T14:43:15.979Z,21.20
2018-06-15T14:46:20.327Z,21.50
2018-06-15T14:49:25.026Z,21.70
2018-06-15T14:52:29.342Z,21.60
2018-06-15T14:55:33.672Z,21.60
2018-06-15T14:58:38.029Z,21.80
2018-06-15T15:01:42.288Z,21.90
2018-06-15T15:07:50.639Z,21.80
2018-06-15T15:13:58.983Z,22.00
2018-06-15T15:20:07.396Z,22.00
2018-06-15T15:23:11.676Z,22.10
2018-06-15T15:26:15.956Z,22.70
2018-06-15T15:29:20.245Z,23.20
2018-06-15T15:32:24.560Z,23.50
2018-06-15T15:35:29.150Z,23.50
2018-06-15T15:38:33.530Z,23.50
2018-06-15T15:41:37.829Z,23.90
2018-06-15T15:44:42.155Z,24.00
2018-06-15T15:47:46.501Z,23.90
2018-06-15T15:50:50.888Z,24.10
2018-06-15T15:53:55.160Z,24.30
2018-06-15T15:56:59.573Z,24.20
2018-06-15T16:00:04.000Z,24.30
2018-06-15T16:03:08.393Z,24.40
2018-06-15T16:06:12.717Z,24.60
2018-06-15T16:09:16.983Z,24.60
2018-06-15T16:12:21.512Z,24.60
2018-06-15T16:15:25.851Z,24.70
2018-06-15T16:18:30.181Z,24.80
2018-06-15T16:21:34.473Z,24.80
2018-06-15T16:24:38.830Z,25.00
2018-06-15T16:27:43.134Z,25.00
2018-06-15T16:30:47.496Z,25.10
2018-06-15T16:33:51.906Z,25.10
2018-06-15T16:36:56.330Z,24.90
2018-06-15T16:40:00.637Z,25.10
2018-06-15T16:43:04.904Z,25.30
2018-06-15T16:46:09.309Z,25.30
2018-06-15T16:49:13.689Z,25.10
2018-06-15T16:52:17.966Z,25.20
2018-06-15T16:55:22.304Z,25.30
2018-06-15T16:58:26.590Z,25.00
2018-06-15T17:01:30.948Z,25.10
2018-06-15T17:04:35.298Z,25.30
2018-06-15T17:07:39.687Z,25.30
2018-06-15T17:10:44.037Z,25.10
2018-06-15T17:13:48.494Z,24.80
2018-06-15T17:16:52.894Z,24.20
2018-06-15T17:19:57.312Z,23.90
2018-06-15T17:23:01.767Z,23.40
2018-06-15T17:26:06.147Z,22.70
2018-06-15T17:29:10.434Z,22.00
2018-06-15T17:32:14.781Z,21.50
2018-06-15T17:35:19.167Z,21.10
2018-06-15T17:38:23.757Z,20.80
2018-06-15T17:41:28.056Z,20.70
2018-06-15T17:44:32.406Z,20.40
2018-06-15T17:47:36.693Z,20.20
2018-06-15T17:50:41.074Z,20.00
2018-06-15T17:53:45.696Z,19.90
2018-06-15T17:56:50.093Z,19.80
2018-06-15T17:59:54.415Z,19.60
2018-06-15T18:02:58.772Z,19.40
2018-06-15T18:06:03.102Z,19.30
2018-06-15T18:09:10.404Z,19.20
2018-06-15T18:12:14.830Z,19.10
2018-06-15T18:15:19.181Z,19.00
2018-06-15T18:18:23.427Z,18.80
2018-06-15T18:21:27.755Z,18.70
2018-06-15T18:24:32.086Z,18.60
2018-06-15T18:27:36.435Z,18.50
2018-06-15T18:30:40.848Z,18.30
2018-06-15T18:33:45.161Z,18.20
2018-06-15T18:36:49.517Z,18.10
2018-06-15T18:39:54.191Z,18.00
2018-06-15T18:42:58.511Z,17.90
2018-06-15T18:46:02.870Z,17.80
2018-06-15T18:49:07.617Z,17.80
2018-06-15T18:52:12.034Z,17.70
2018-06-15T18:55:16.734Z,17.70
2018-06-15T18:58:21.046Z,17.60
2018-06-15T19:01:25.647Z,17.50
2018-06-15T19:04:30.094Z,17.80
2018-06-15T19:07:34.552Z,17.40
2018-06-15T19:10:38.841Z,17.30
2018-06-15T19:13:44.324Z,17.20
2018-06-15T19:16:48.732Z,17.10
2018-06-15T19:19:53.021Z,17.10
2018-06-15T19:23:02.607Z,16.90
2018-06-15T19:26:06.861Z,16.70
2018-06-15T19:29:11.341Z,16.70
2018-06-15T19:32:15.739Z,16.50
2018-06-15T19:35:20.316Z,16.40
2018-06-15T19:38:24.667Z,16.30
2018-06-15T19:41:29.057Z,16.30
2018-06-15T19:44:33.437Z,16.10
2018-06-15T19:47:37.857Z,16.00
2018-06-15T19:50:42.254Z,15.90
2018-06-15T19:53:46.506Z,15.90
2018-06-15T19:56:50.886Z,15.90
2018-06-15T19:59:55.232Z,15.80
2018-06-15T20:02:59.640Z,15.70
2018-06-15T20:06:04.084Z,15.60
2018-06-15T20:09:09.223Z,15.50
2018-06-15T20:12:13.665Z,15.40
2018-06-15T20:15:18.040Z,15.30
2018-06-15T20:18:22.349Z,15.20
2018-06-15T20:24:30.958Z,15.10
2018-06-15T20:27:35.219Z,15.00
2018-06-15T20:30:39.509Z,14.90
2018-06-15T20:33:43.848Z,14.80
2018-06-15T20:36:48.128Z,14.70
2018-06-15T20:39:52.500Z,14.60
2018-06-15T20:42:56.802Z,14.60
2018-06-15T20:46:01.107Z,14.50
2018-06-15T20:49:05.733Z,14.40
2018-06-15T20:52:10.321Z,14.30
2018-06-15T20:55:14.804Z,14.30
2018-06-15T20:58:19.335Z,14.20
2018-06-15T21:01:23.729Z,14.10
2018-06-15T21:04:28.035Z,14.10
2018-06-15T21:07:33.548Z,14.00
2018-06-15T21:10:38.091Z,13.90
2018-06-15T21:13:42.400Z,13.80
2018-06-15T21:16:46.797Z,13.80
2018-06-15T21:19:51.357Z,13.80
2018-06-15T21:22:55.731Z,13.70
2018-06-15T21:26:00.035Z,13.80
2018-06-15T21:29:04.879Z,13.70
2018-06-15T21:32:09.184Z,13.80
2018-06-15T21:35:13.614Z,13.80
2018-06-15T21:38:17.914Z,13.90
2018-06-15T21:41:22.253Z,13.90
2018-06-15T21:44:26.681Z,14.00
2018-06-15T21:47:31.081Z,14.00
2018-06-15T21:50:35.792Z,14.00
2018-06-15T21:53:40.085Z,14.00
2018-06-15T21:56:44.549Z,14.10
2018-06-15T21:59:48.798Z,14.00
2018-06-15T22:02:53.281Z,13.90
2018-06-15T22:05:57.657Z,13.90
2018-06-15T22:09:02.004Z,13.90
2018-06-15T22:12:06.346Z,13.90
2018-06-15T22:15:10.781Z,13.90
2018-06-15T22:18:15.062Z,13.80
2018-06-15T22:21:19.406Z,13.80
2018-06-15T22:24:24.155Z,13.70
2018-06-15T22:27:28.512Z,13.70
2018-06-15T22:30:32.848Z,13.80
2018-06-15T22:33:37.173Z,13.90
2018-06-15T22:36:41.987Z,13.80
2018-06-15T22:39:46.397Z,13.80
2018-06-15T22:42:50.758Z,13.80
2018-06-15T22:48:59.343Z,13.80
2018-06-15T22:52:03.954Z,13.90
2018-06-15T22:55:08.539Z,14.00
2018-06-15T22:58:13.008Z,14.10
2018-06-15T23:01:17.422Z,14.30
2018-06-15T23:04:21.733Z,14.30
2018-06-15T23:07:26.161Z,14.40
2018-06-15T23:10:30.606Z,14.40
2018-06-15T23:13:35.129Z,14.40
2018-06-15T23:16:39.519Z,14.50
2018-06-15T23:19:44.070Z,14.50
2018-06-15T23:22:48.485Z,14.60
2018-06-15T23:25:52.843Z,14.60
2018-06-15T23:28:57.228Z,14.70
2018-06-15T23:32:02.413Z,14.70
2018-06-15T23:35:06.891Z,14.70
2018-06-15T23:38:11.297Z,14.70
2018-06-15T23:41:15.642Z,14.80
2018-06-15T23:44:20.015Z,14.70
2018-06-15T23:47:24.667Z,14.80
2018-06-15T23:50:29.108Z,14.70
2018-06-15T23:53:33.747Z,14.80
2018-06-15T23:56:38.070Z,14.70
2018-06-15T23:59:42.575Z,14.70
